McGregor, TX

5:23 AM CDT on September 22, 2014 (GMT -0500)
McGregor City Center | Change Station
CLOSE
Current Station
Personal Weather Station
Location: McGregor, TX
Elevation: 756 ft
Nearby Weather Stations

Elev 756 ft 31.43 °N, 97.41 °W | Updated 41 seconds ago

Clear
Clear
71.4 °F
Feels Like 71 °F
N
0.0
Wind Variable Wind from NNE
Gusts 0.0 mph

Today
High -- | Low -- °F
--% Chance of Precip.
Yesterday
High -- | Low -- °F
Precip. -- in
7:17 AM 7:26 PM
Waning Crescent, 3% visible
Pressure 30.12 in
Visibility 10.0 miles
Clouds Clear
Heat Index 71 °F
Dew Point 66 °F
Humidity 84%
Rainfall 0.00 in
Snow Depth Not available.
UV 0.0 out of 12
Pollen 10.40 out of 12
Ozone Good
PM2.5 Good
Flu Activity Not available.
METAR KPWG 221015Z AUTO 35006KT 10SM CLR 22/16 A3012 RMK AO1

More Conditions Fewer Conditions

Pressure 30.12 in
Visibility 10.0 miles
Clouds Clear
Heat Index 71 °F
Dew Point 66 °F
Humidity 84%
Rainfall 0.00 in
Snow Depth Not available.
UV 0.0 out of 12
Pollen 10.40 out of 12
Ozone Good
PM2.5 Good
Flu Activity Not available.
METAR KPWG 221015Z AUTO 35006KT 10SM CLR 22/16 A3012 RMK AO1

More Conditions Fewer Conditions

Nowcast | as of 2:49 am CDT on September 22, 2014

A weak cold front will arrive into central Texas through 7 am. Winds behind the cold front will shift to the northeast at 5 to 10 mph with temperatures falling into the mid and upper 60s. Isolated showers and thunderstorms producing light rainfall amounts below 1/10 of an inch will be possible along and northeast of a Graham...to Fort Worth...to Canton line through sunrise. Elsewhere...periods of high cloudiness will continue with near calm winds ahead of the cold front. Light winds. Temperatures ahead of the cold front will remain in the 70s.

×

10-Day Weather Forecast

Almanac

Astronomy

Sep. 22, 2014 Rise Set
Actual Time 7:17 AM CDT 7:26 PM CDT
Civil Twilight 6:53 AM CDT 7:50 PM CDT
Nautical Twilight 6:25 AM CDT 8:18 PM CDT
Astronomical Twilight 5:56 AM CDT 8:47 PM CDT
Moon 5:51 AM CDT 6:32 PM CDT
Length of Visible Light 12h 56m
Length of Day
12h 08m
Tomorrow will be 1m 54s shorter.
Waning Crescent, 3% of the Moon is Illuminated
Today
Waning Crescent
Sep 24
New
Oct 1
First Quarter
Oct 8
Full
Oct 15
Last Quarter

Today's Extremes

State Highs State Lows

Community

WunderPhotos

Upload Photos

1,755,406 photos uploaded!

Nearby

Air Quality

  Air Quality AQ Index Pollutant
Yesterday Good
OZONE
Yesterday Good
PM2.5
Current Good
PM2.5
Current Good
OZONE
Monday Moderate
OZONE
Monday Good
PM10
Tuesday Moderate
OZONE
Tuesday Good
PM10

Snow Depth

Station Depth Elevation
No new snow has been reported.

Earthquake Activity

City Distance Mag. Time & Date
No recent earthquake activity has been reported nearby.
Minimum magnitude displayed is 2.5.

Coastal Water Temperatures

Place Temperature
No Stations Reporting

Nearby Weather Stations